San Juan Capistrano, CA (92675)

11:50 PM PDT on September 02, 2015 (GMT -0700)
SJC-NON HOA | | Change Station
CLOSE
Current Station
Personal Weather Station
Location: San Juan Capistrano, CA
Elevation: 131 ft
Nearby Weather Stations

Elev 131 ft 33.51 °N, 117.64 °W | Updated 6 minutes ago

Clear
Clear
62.1 °F
Feels Like 62.1 °F
N
1.7
Wind Variable Wind from ESE

Today
High -- | Low -- °F
--% Chance of Precip.
Yesterday
High -- | Low -- °F
Precip. -- in
6:25 AM 7:14 PM
Waning Gibbous, 73% visible
Pressure 30.19 in
Visibility 8.0 miles
Clouds Clear
Dew Point 58 °F
Humidity 88%
Rainfall 0.00 in
Snow Depth Not available.
UV 0 out of 12
Pollen 7.50 out of 12
Air Quality Not available.
Flu Activity Not available.
METAR KNXF 030556Z AUTO 00000KT 8SM CLR 18/14 A2994 RMK AO2 SLP222 T01830144 10233 20183 51010 $
Pressure 30.19 in
Visibility 8.0 miles
Clouds Clear
Dew Point 58 °F
Humidity 88%
Rainfall 0.00 in
Snow Depth Not available.
UV 0 out of 12
Pollen 7.50 out of 12
Air Quality Not available.
Flu Activity Not available.
METAR KNXF 030556Z AUTO 00000KT 8SM CLR 18/14 A2994 RMK AO2 SLP222 T01830144 10233 20183 51010 $

10-Day Weather Forecast

×

Almanac

Astronomy

Sep. 02, 2015 Rise Set
Actual Time
Civil Twilight
Nautical Twilight
Astronomical Twilight
Moon
Length of Visible Light
Length of Day
Tomorrow will be .
, % of the Moon is Illuminated

Today's Extremes

State Highs State Lows

Community

WunderPhotos

Upload Photos

1,851,913 photos uploaded!

WunderBlogs® & News

Nearby

Air Quality

  Air Quality AQ Index Pollutant
Not available.

Snow Depth

Station Depth Elevation

Earthquake Activity

City Distance Mag. Time & Date
Minimum magnitude displayed is 2.5.

Coastal Water Temperatures

Place Temperature

Stations

Nearby Weather Stations

Station Location Temp. Windchill Dew Point Humidity Wind Precip. Elev Updated Type